Time;durP1;ratioP1;P1;durP2;ratioP2;P2;SDS_P1;SDS_P2;PMS_P1;PMS_P2;Temp;Humidity;BMP_temperature;BMP_pressure;BME280_temperature;BME280_humidity;BME280_pressure;Samples;Min_cycle;Max_cycle;Signal;HPM_P1;HPM_P2
2022/01/14 00:02:45;;;;;;;34.83;18.88;;;;;;;;;;6254616;28;20504;-67
2022/01/14 00:05:48;;;;;;;52.28;25.60;;;;;;;;;;6258194;28;20052;-68
2022/01/14 00:08:50;;;;;;;76.93;35.35;;;;;;;;;;6257503;28;20572;-67
2022/01/14 00:11:56;;;;;;;72.90;34.25;;;;;;;;;;6257488;28;20142;-68
2022/01/14 00:18:53;;;;;;;39.17;20.88;;;;;;;;;;6252745;28;20045;-68
2022/01/14 00:21:58;;;;;;;80.35;36.75;;;;;;;;;;6253972;28;20048;-66
2022/01/14 00:31:48;;;;;;;26.80;14.77;;;;;;;;;;6254377;28;20417;-66
2022/01/14 00:34:50;;;;;;;29.17;14.23;;;;;;;;;;6256894;28;20501;-66
2022/01/14 00:37:53;;;;;;;28.92;14.73;;;;;;;;;;6256437;28;20515;-66
2022/01/14 00:40:54;;;;;;;25.67;14.52;;;;;;;;;;6255112;28;20122;-66
2022/01/14 00:44:01;;;;;;;24.83;15.13;;;;;;;;;;6257637;28;20548;-66
2022/01/14 00:47:04;;;;;;;25.65;13.95;;;;;;;;;;6259115;28;20059;-66
2022/01/14 00:50:07;;;;;;;28.27;16.10;;;;;;;;;;6257521;28;20076;-67
2022/01/14 00:53:10;;;;;;;25.85;14.57;;;;;;;;;;6253036;28;20049;-67
2022/01/14 00:56:25;;;;;;;29.73;16.05;;;;;;;;;;6259009;28;20052;-66
2022/01/14 00:59:26;;;;;;;28.83;16.10;;;;;;;;;;6256310;28;20044;-66
2022/01/14 01:02:27;;;;;;;31.85;16.17;;;;;;;;;;6255000;28;20056;-67
2022/01/14 01:05:30;;;;;;;29.25;16.30;;;;;;;;;;6231687;28;20168;-66
2022/01/14 01:08:34;;;;;;;29.38;17.08;;;;;;;;;;6246476;28;20516;-67
2022/01/14 01:11:38;;;;;;;33.13;16.67;;;;;;;;;;6249511;28;20260;-66
2022/01/14 01:14:44;;;;;;;28.17;15.80;;;;;;;;;;6256289;28;20556;-67
2022/01/14 01:17:46;;;;;;;28.77;15.55;;;;;;;;;;6255801;28;20052;-66
2022/01/14 01:20:48;;;;;;;29.58;16.75;;;;;;;;;;6258446;28;20460;-67
2022/01/14 01:23:51;;;;;;;26.30;15.88;;;;;;;;;;6256270;28;20300;-66
2022/01/14 01:26:52;;;;;;;31.98;17.17;;;;;;;;;;6256633;28;20132;-66
2022/01/14 01:30:10;;;;;;;27.00;15.05;;;;;;;;;;6253126;28;20053;-66
2022/01/14 01:33:11;;;;;;;29.45;15.93;;;;;;;;;;6253698;28;20045;-66
2022/01/14 01:36:13;;;;;;;25.85;15.18;;;;;;;;;;6249941;28;20248;-66
2022/01/14 01:39:19;;;;;;;26.25;16.13;;;;;;;;;;6251443;28;20529;-66
2022/01/14 01:42:26;;;;;;;25.80;16.80;;;;;;;;;;6249419;28;20590;-66
2022/01/14 01:45:28;;;;;;;28.25;17.13;;;;;;;;;;6256092;28;20045;-67
2022/01/14 01:48:29;;;;;;;34.78;17.85;;;;;;;;;;6250741;28;20619;-66
2022/01/14 01:51:31;;;;;;;30.23;17.42;;;;;;;;;;6256031;28;20071;-66
2022/01/14 01:54:34;;;;;;;30.55;17.33;;;;;;;;;;6253639;28;20175;-66
2022/01/14 01:57:36;;;;;;;32.65;18.42;;;;;;;;;;6255997;28;20124;-66
2022/01/14 02:00:38;;;;;;;34.58;18.63;;;;;;;;;;6250288;28;20179;-66
2022/01/14 02:03:40;;;;;;;38.22;17.60;;;;;;;;;;6254830;28;20049;-67
2022/01/14 02:06:42;;;;;;;31.58;18.42;;;;;;;;;;6263614;28;20060;-66
2022/01/14 02:09:45;;;;;;;29.58;18.02;;;;;;;;;;6258985;28;20122;-66
2022/01/14 02:12:50;;;;;;;31.40;17.75;;;;;;;;;;6251220;28;20045;-67
2022/01/14 02:16:12;;;;;;;30.98;18.55;;;;;;;;;;6255174;28;20056;-67
2022/01/14 02:19:17;;;;;;;26.15;17.42;;;;;;;;;;6254500;28;20053;-66
2022/01/14 02:22:19;;;;;;;33.28;18.42;;;;;;;;;;6252281;28;20394;-67
2022/01/14 02:25:29;;;;;;;29.48;18.20;;;;;;;;;;6253329;28;20132;-67
2022/01/14 02:28:31;;;;;;;32.80;19.30;;;;;;;;;;6251996;28;20076;-66
2022/01/14 02:31:33;;;;;;;31.50;18.65;;;;;;;;;;6252262;28;20136;-67
2022/01/14 02:34:34;;;;;;;31.98;18.40;;;;;;;;;;6253533;28;20132;-64
2022/01/14 02:37:37;;;;;;;30.55;18.58;;;;;;;;;;6247755;28;20183;-66
2022/01/14 02:40:40;;;;;;;31.58;18.17;;;;;;;;;;6258011;28;20057;-67
2022/01/14 02:43:42;;;;;;;29.63;18.30;;;;;;;;;;6254445;28;20048;-66
2022/01/14 02:46:52;;;;;;;34.10;17.45;;;;;;;;;;6256898;28;20594;-67
2022/01/14 02:49:54;;;;;;;31.33;18.67;;;;;;;;;;6251971;28;20164;-66
2022/01/14 02:53:01;;;;;;;29.02;17.80;;;;;;;;;;6249686;28;20384;-66
2022/01/14 02:56:04;;;;;;;31.67;18.75;;;;;;;;;;6250983;28;20084;-66
2022/01/14 02:59:07;;;;;;;30.97;17.27;;;;;;;;;;6254120;28;20498;-66
2022/01/14 03:02:10;;;;;;;31.27;19.00;;;;;;;;;;6256646;28;20182;-66
2022/01/14 03:05:12;;;;;;;31.23;18.33;;;;;;;;;;6262932;28;20045;-66
2022/01/14 03:08:15;;;;;;;30.98;18.42;;;;;;;;;;6262162;28;20049;-65
2022/01/14 03:11:20;;;;;;;33.30;18.77;;;;;;;;;;6264396;28;20075;-66
2022/01/14 03:14:24;;;;;;;32.50;18.98;;;;;;;;;;6264928;28;20048;-65
2022/01/14 03:17:27;;;;;;;33.72;18.27;;;;;;;;;;6261589;28;20049;-66
2022/01/14 03:20:48;;;;;;;29.80;18.67;;;;;;;;;;6259472;28;20045;-66
2022/01/14 03:24:02;;;;;;;34.65;19.58;;;;;;;;;;6261130;28;20045;-66
2022/01/14 03:27:04;;;;;;;35.30;19.33;;;;;;;;;;6253989;28;20049;-66
2022/01/14 03:30:07;;;;;;;36.55;18.73;;;;;;;;;;6261821;28;20459;-67
2022/01/14 03:33:08;;;;;;;32.00;18.33;;;;;;;;;;6259556;28;20132;-66
2022/01/14 03:36:10;;;;;;;30.80;18.40;;;;;;;;;;6256915;28;20183;-66
2022/01/14 03:39:13;;;;;;;32.58;18.85;;;;;;;;;;6270997;28;20176;-67
2022/01/14 03:42:14;;;;;;;29.23;17.60;;;;;;;;;;6262425;28;20132;-66
2022/01/14 03:45:16;;;;;;;31.73;18.77;;;;;;;;;;6257825;28;20157;-66
2022/01/14 03:48:19;;;;;;;33.30;18.92;;;;;;;;;;6253374;28;20413;-66
2022/01/14 03:51:20;;;;;;;34.85;18.65;;;;;;;;;;6253581;28;20073;-66
2022/01/14 03:54:24;;;;;;;30.40;17.48;;;;;;;;;;6252492;28;20049;-67
2022/01/14 03:57:28;;;;;;;33.70;18.35;;;;;;;;;;6246075;28;20112;-66
2022/01/14 04:00:31;;;;;;;35.58;18.73;;;;;;;;;;6263144;28;20052;-67
2022/01/14 04:03:33;;;;;;;27.90;17.90;;;;;;;;;;6263358;28;20041;-66
2022/01/14 04:06:35;;;;;;;36.55;18.90;;;;;;;;;;6262801;28;20127;-66
2022/01/14 04:09:38;;;;;;;31.85;18.45;;;;;;;;;;6259454;28;20647;-66
2022/01/14 04:12:50;;;;;;;33.25;18.58;;;;;;;;;;6260704;28;20082;-67
2022/01/14 04:15:52;;;;;;;32.75;18.85;;;;;;;;;;6260892;28;20037;-65
2022/01/14 04:18:54;;;;;;;30.00;18.98;;;;;;;;;;6256013;28;20073;-66
2022/01/14 04:21:56;;;;;;;29.00;18.25;;;;;;;;;;6258728;28;20493;-66
2022/01/14 04:24:59;;;;;;;29.17;17.83;;;;;;;;;;6254280;28;20512;-65
2022/01/14 04:28:01;;;;;;;29.77;18.23;;;;;;;;;;6257187;28;20515;-66
2022/01/14 04:31:03;;;;;;;30.85;18.52;;;;;;;;;;6253443;28;20118;-66
2022/01/14 04:34:05;;;;;;;34.38;18.95;;;;;;;;;;6258329;28;20080;-65
2022/01/14 04:37:06;;;;;;;30.42;18.30;;;;;;;;;;6258763;28;20126;-66
2022/01/14 04:40:12;;;;;;;30.80;17.92;;;;;;;;;;6258843;28;20144;-66
2022/01/14 04:43:17;;;;;;;30.20;18.08;;;;;;;;;;6263385;28;20054;-65
2022/01/14 04:49:34;;;;;;;32.45;17.30;;;;;;;;;;6250528;28;20061;-66
2022/01/14 04:52:36;;;;;;;35.30;16.17;;;;;;;;;;6259876;28;20045;-66
2022/01/14 04:55:39;;;;;;;25.45;16.58;;;;;;;;;;6252818;28;20073;-66
2022/01/14 04:58:40;;;;;;;34.05;17.25;;;;;;;;;;6261091;28;20132;-66
2022/01/14 05:01:42;;;;;;;31.40;16.58;;;;;;;;;;6263641;28;20262;-66
2022/01/14 05:04:45;;;;;;;29.00;17.58;;;;;;;;;;6258602;28;20046;-66
2022/01/14 05:07:48;;;;;;;28.23;17.15;;;;;;;;;;6260665;28;20127;-66
2022/01/14 05:11:03;;;;;;;33.50;16.98;;;;;;;;;;6254626;28;20498;-65
2022/01/14 05:14:05;;;;;;;28.70;17.05;;;;;;;;;;6260303;28;20401;-66
2022/01/14 05:17:06;;;;;;;31.85;17.35;;;;;;;;;;6255498;28;20052;-66
2022/01/14 05:20:09;;;;;;;30.40;16.88;;;;;;;;;;6260655;28;20136;-66
2022/01/14 05:23:11;;;;;;;27.38;16.92;;;;;;;;;;6251583;28;20135;-66
2022/01/14 05:26:13;;;;;;;29.45;17.30;;;;;;;;;;6254777;28;20049;-66
2022/01/14 05:29:15;;;;;;;27.35;15.90;;;;;;;;;;6254874;28;20501;-66
2022/01/14 05:32:17;;;;;;;29.58;16.40;;;;;;;;;;6254124;28;20092;-66
2022/01/14 05:35:20;;;;;;;30.27;15.82;;;;;;;;;;6256762;28;20045;-66
2022/01/14 05:38:22;;;;;;;30.50;17.40;;;;;;;;;;6254637;28;20184;-66
2022/01/14 05:41:25;;;;;;;29.15;16.33;;;;;;;;;;6255780;28;20088;-65
2022/01/14 05:44:27;;;;;;;32.90;16.40;;;;;;;;;;6256606;28;20515;-66
2022/01/14 05:47:29;;;;;;;31.10;16.45;;;;;;;;;;6257196;28;20167;-66
2022/01/14 05:50:30;;;;;;;25.48;15.57;;;;;;;;;;6267402;28;20057;-67
2022/01/14 05:53:32;;;;;;;29.27;16.40;;;;;;;;;;6256757;28;20041;-67
2022/01/14 05:56:35;;;;;;;26.65;16.50;;;;;;;;;;6258970;28;20044;-65
2022/01/14 05:59:36;;;;;;;27.85;15.90;;;;;;;;;;6256554;28;20562;-65
2022/01/14 06:02:38;;;;;;;24.50;14.93;;;;;;;;;;6256283;28;20057;-65
2022/01/14 06:05:39;;;;;;;27.50;16.17;;;;;;;;;;6258157;28;20489;-66
2022/01/14 06:08:41;;;;;;;31.48;15.90;;;;;;;;;;6258366;28;20203;-66
2022/01/14 06:11:44;;;;;;;28.77;15.40;;;;;;;;;;6255890;28;20131;-65
2022/01/14 06:14:46;;;;;;;30.35;15.00;;;;;;;;;;6255071;28;20100;-65
2022/01/14 06:17:47;;;;;;;25.95;15.32;;;;;;;;;;6258742;28;20120;-65
2022/01/14 06:20:49;;;;;;;31.35;15.38;;;;;;;;;;6253882;28;20050;-65
2022/01/14 06:23:50;;;;;;;27.05;15.60;;;;;;;;;;6253081;28;20122;-64
2022/01/14 06:26:53;;;;;;;31.73;14.60;;;;;;;;;;6253275;28;20076;-65
2022/01/14 06:29:55;;;;;;;22.00;13.52;;;;;;;;;;6253246;28;20508;-65
2022/01/14 06:32:57;;;;;;;24.08;13.68;;;;;;;;;;6255952;28;20054;-65
2022/01/14 06:35:58;;;;;;;23.38;13.70;;;;;;;;;;6260652;28;20512;-65
2022/01/14 06:39:00;;;;;;;24.05;13.70;;;;;;;;;;6258304;28;20122;-65
2022/01/14 06:42:03;;;;;;;24.63;13.68;;;;;;;;;;6257604;28;20412;-65
2022/01/14 06:45:06;;;;;;;28.70;13.80;;;;;;;;;;6261224;28;20080;-64
2022/01/14 06:48:07;;;;;;;28.23;13.73;;;;;;;;;;6259640;28;20049;-65
2022/01/14 06:51:13;;;;;;;22.33;12.20;;;;;;;;;;6256789;28;20085;-62
2022/01/14 06:54:14;;;;;;;21.52;12.77;;;;;;;;;;6256982;28;20629;-66
2022/01/14 06:57:18;;;;;;;22.40;12.18;;;;;;;;;;6263709;28;20072;-65
2022/01/14 07:00:21;;;;;;;20.35;12.20;;;;;;;;;;6256126;28;20060;-65
2022/01/14 07:03:23;;;;;;;21.33;12.40;;;;;;;;;;6258453;28;20053;-65
2022/01/14 07:06:24;;;;;;;20.05;11.65;;;;;;;;;;6261108;28;20134;-64
2022/01/14 07:09:26;;;;;;;23.27;12.23;;;;;;;;;;6264601;28;20088;-65
2022/01/14 07:12:32;;;;;;;22.33;11.20;;;;;;;;;;6258853;28;20133;-65
2022/01/14 07:15:34;;;;;;;16.13;10.80;;;;;;;;;;6259926;28;20106;-66
2022/01/14 07:18:35;;;;;;;19.98;11.88;;;;;;;;;;6261224;28;20076;-67
2022/01/14 07:21:38;;;;;;;18.00;10.98;;;;;;;;;;6258020;28;20442;-64
2022/01/14 07:24:40;;;;;;;20.77;12.00;;;;;;;;;;6259252;28;20068;-66
2022/01/14 07:27:43;;;;;;;21.90;11.98;;;;;;;;;;6260945;28;20506;-63
2022/01/14 07:30:44;;;;;;;17.20;11.73;;;;;;;;;;6258331;28;20057;-66
2022/01/14 07:33:46;;;;;;;21.65;11.23;;;;;;;;;;6264027;28;20115;-64
2022/01/14 07:36:47;;;;;;;22.80;12.25;;;;;;;;;;6255906;28;20045;-66
2022/01/14 07:39:49;;;;;;;21.77;11.20;;;;;;;;;;6262150;28;20099;-66
2022/01/14 07:42:52;;;;;;;23.13;11.30;;;;;;;;;;6258905;28;20118;-64
2022/01/14 07:45:54;;;;;;;18.20;10.48;;;;;;;;;;6259303;28;20037;-65
2022/01/14 07:48:55;;;;;;;21.40;11.32;;;;;;;;;;6256687;28;20095;-65
2022/01/14 07:51:57;;;;;;;17.90;10.85;;;;;;;;;;6253943;28;20134;-65
2022/01/14 07:54:58;;;;;;;17.83;11.35;;;;;;;;;;6261540;28;20045;-65
2022/01/14 07:58:02;;;;;;;21.67;11.25;;;;;;;;;;6262729;28;20198;-64
2022/01/14 08:01:04;;;;;;;22.45;11.57;;;;;;;;;;6261550;28;20068;-65
2022/01/14 08:04:06;;;;;;;16.77;11.15;;;;;;;;;;6267113;28;20502;-64
2022/01/14 08:07:11;;;;;;;19.92;11.55;;;;;;;;;;6262133;28;20096;-65
2022/01/14 08:10:13;;;;;;;21.85;12.27;;;;;;;;;;6259462;28;20060;-65
2022/01/14 08:13:16;;;;;;;20.30;11.38;;;;;;;;;;6260380;28;20091;-65
2022/01/14 08:16:18;;;;;;;19.13;11.50;;;;;;;;;;6258735;28;20046;-63
2022/01/14 08:19:19;;;;;;;20.70;11.07;;;;;;;;;;6259875;28;20040;-65
2022/01/14 08:22:21;;;;;;;22.15;11.15;;;;;;;;;;6259653;28;20120;-65
2022/01/14 08:25:22;;;;;;;19.58;11.18;;;;;;;;;;6259701;28;20171;-65
2022/01/14 08:28:26;;;;;;;20.27;11.43;;;;;;;;;;6253626;28;20080;-65
2022/01/14 08:31:28;;;;;;;18.95;11.65;;;;;;;;;;6255295;28;20053;-64
2022/01/14 08:34:30;;;;;;;20.15;11.95;;;;;;;;;;6256259;28;20069;-66
2022/01/14 08:37:31;;;;;;;18.70;11.63;;;;;;;;;;6257377;28;20077;-65
2022/01/14 08:40:34;;;;;;;19.20;12.65;;;;;;;;;;6259244;28;20052;-66
2022/01/14 08:43:37;;;;;;;18.92;11.52;;;;;;;;;;6262397;28;20512;-65
2022/01/14 08:46:38;;;;;;;21.45;11.13;;;;;;;;;;6261315;28;20130;-64
2022/01/14 08:49:41;;;;;;;23.55;12.13;;;;;;;;;;6262812;28;20041;-65
2022/01/14 08:52:43;;;;;;;21.17;12.05;;;;;;;;;;6258273;28;20084;-65
2022/01/14 08:55:44;;;;;;;18.80;11.10;;;;;;;;;;6261036;28;20131;-65
2022/01/14 08:58:47;;;;;;;18.40;11.65;;;;;;;;;;6263280;28;20127;-65
2022/01/14 09:01:49;;;;;;;17.70;11.80;;;;;;;;;;6262804;28;20089;-65
2022/01/14 09:04:51;;;;;;;20.88;11.43;;;;;;;;;;6254636;28;20136;-65
2022/01/14 09:07:53;;;;;;;20.23;11.15;;;;;;;;;;6256890;28;20068;-64
2022/01/14 09:10:54;;;;;;;20.77;11.93;;;;;;;;;;6251840;28;20139;-67
2022/01/14 09:13:57;;;;;;;20.88;11.63;;;;;;;;;;6249066;28;20497;-65
2022/01/14 09:16:59;;;;;;;19.75;11.65;;;;;;;;;;6246263;28;20462;-66
2022/01/14 09:20:03;;;;;;;20.20;11.98;;;;;;;;;;6251398;28;20110;-66
2022/01/14 09:23:11;;;;;;;18.52;11.35;;;;;;;;;;6249561;28;20045;-66
2022/01/14 09:26:13;;;;;;;20.27;11.90;;;;;;;;;;6254333;28;20049;-66
2022/01/14 09:29:16;;;;;;;18.90;10.52;;;;;;;;;;6257586;28;20120;-66
2022/01/14 09:32:18;;;;;;;14.90;10.38;;;;;;;;;;6254038;28;20072;-64
2022/01/14 09:35:20;;;;;;;15.30;9.93;;;;;;;;;;6252699;28;20123;-65
2022/01/14 09:38:22;;;;;;;20.02;10.18;;;;;;;;;;6256223;28;20134;-66
2022/01/14 09:41:24;;;;;;;18.88;9.70;;;;;;;;;;6256965;28;20125;-63
2022/01/14 09:44:28;;;;;;;17.42;10.25;;;;;;;;;;6266741;28;20041;-67
2022/01/14 09:47:30;;;;;;;19.05;9.93;;;;;;;;;;6261717;28;20131;-69
2022/01/14 09:50:31;;;;;;;18.13;10.18;;;;;;;;;;6252584;28;20077;-69
2022/01/14 09:53:34;;;;;;;20.27;10.68;;;;;;;;;;6255889;28;20508;-69
2022/01/14 09:56:35;;;;;;;17.08;10.77;;;;;;;;;;6257375;28;20076;-69
2022/01/14 09:59:38;;;;;;;17.60;11.18;;;;;;;;;;6257140;28;20084;-69
2022/01/14 10:02:42;;;;;;;15.23;10.33;;;;;;;;;;6254914;28;20133;-69
2022/01/14 10:05:44;;;;;;;16.77;10.10;;;;;;;;;;6255139;28;20056;-72
2022/01/14 10:08:46;;;;;;;19.30;10.45;;;;;;;;;;6263206;28;20044;-67
2022/01/14 10:12:00;;;;;;;13.95;9.88;;;;;;;;;;6255676;28;20104;-66
2022/01/14 10:15:08;;;;;;;;;;;;;;;;;;6255523;28;20041;-67
2022/01/14 10:18:10;;;;;;;14.18;8.32;;;;;;;;;;6257315;28;19960;-66
2022/01/14 10:21:11;;;;;;;13.40;7.72;;;;;;;;;;6252974;28;21992;-67
2022/01/14 10:24:13;;;;;;;10.98;8.02;;;;;;;;;;6258965;28;20057;-66
2022/01/14 10:27:15;;;;;;;11.95;7.82;;;;;;;;;;6256334;28;20053;-66
2022/01/14 10:30:19;;;;;;;12.20;8.90;;;;;;;;;;6258357;28;20077;-67
2022/01/14 10:33:30;;;;;;;14.07;9.27;;;;;;;;;;6254530;28;20041;-65
2022/01/14 10:36:31;;;;;;;14.95;9.25;;;;;;;;;;6258619;28;20057;-66
2022/01/14 10:39:33;;;;;;;14.27;8.43;;;;;;;;;;6257098;28;20091;-66
2022/01/14 10:42:35;;;;;;;11.68;8.38;;;;;;;;;;6263715;28;20520;-66
2022/01/14 10:45:39;;;;;;;14.63;9.45;;;;;;;;;;6262366;28;20175;-66
2022/01/14 10:48:43;;;;;;;17.92;9.95;;;;;;;;;;6255386;28;20080;-66
2022/01/14 10:51:45;;;;;;;14.80;9.32;;;;;;;;;;6257193;28;20187;-66
2022/01/14 10:54:48;;;;;;;13.90;9.30;;;;;;;;;;6256088;28;20509;-66
2022/01/14 10:57:50;;;;;;;;;;;;;;;;;;6262530;28;20048;-66
2022/01/14 11:00:59;;;;;;;16.33;9.82;;;;;;;;;;6259218;28;20378;-65
2022/01/14 11:04:10;;;;;;;16.50;9.48;;;;;;;;;;6258819;28;20075;-67
2022/01/14 11:07:22;;;;;;;15.90;9.90;;;;;;;;;;6257692;28;20053;-67
2022/01/14 11:10:26;;;;;;;15.68;10.50;;;;;;;;;;6258465;28;20557;-65
2022/01/14 11:13:28;;;;;;;13.85;9.77;;;;;;;;;;6250168;28;20077;-69
2022/01/14 11:16:32;;;;;;;16.77;10.20;;;;;;;;;;6253160;28;20041;-69
2022/01/14 11:19:33;;;;;;;16.35;10.98;;;;;;;;;;6261621;28;20120;-68
2022/01/14 11:26:00;;;;;;;13.65;9.93;;;;;;;;;;6256055;28;20085;-69
2022/01/14 11:29:06;;;;;;;14.23;9.90;;;;;;;;;;6256466;28;20080;-67
2022/01/14 11:32:10;;;;;;;15.68;9.77;;;;;;;;;;6259024;28;20049;-68
2022/01/14 11:35:20;;;;;;;14.80;10.65;;;;;;;;;;6261648;28;20453;-66
2022/01/14 11:38:37;;;;;;;19.42;11.65;;;;;;;;;;6260557;28;20076;-68
2022/01/14 11:41:51;;;;;;;21.10;11.18;;;;;;;;;;6262075;28;20076;-66
2022/01/14 11:44:57;;;;;;;14.77;11.02;;;;;;;;;;6261306;28;20320;-66
2022/01/14 11:48:01;;;;;;;16.92;11.80;;;;;;;;;;6255771;28;20440;-68
2022/01/14 11:51:04;;;;;;;22.23;12.60;;;;;;;;;;6262515;28;20124;-68
2022/01/14 11:54:08;;;;;;;24.20;12.97;;;;;;;;;;6255987;28;20532;-68
2022/01/14 11:57:11;;;;;;;20.33;12.40;;;;;;;;;;6259726;28;20049;-66
2022/01/14 12:00:33;;;;;;;18.67;12.27;;;;;;;;;;6253521;28;20136;-68
2022/01/14 12:03:36;;;;;;;20.48;11.68;;;;;;;;;;6253257;28;20104;-67
2022/01/14 12:06:59;;;;;;;17.10;11.77;;;;;;;;;;6256367;28;20099;-66
2022/01/14 12:10:03;;;;;;;19.63;11.40;;;;;;;;;;6254880;28;20048;-67
2022/01/14 12:13:20;;;;;;;19.10;12.38;;;;;;;;;;6259023;28;20126;-67
2022/01/14 12:16:47;;;;;;;16.98;12.20;;;;;;;;;;6255111;28;20040;-65
2022/01/14 12:19:54;;;;;;;18.50;12.52;;;;;;;;;;6258608;28;20069;-67
2022/01/14 12:23:07;;;;;;;20.15;12.25;;;;;;;;;;6253457;28;20170;-67
2022/01/14 12:26:16;;;;;;;20.77;13.15;;;;;;;;;;6249711;28;20115;-67
2022/01/14 12:29:17;;;;;;;17.85;13.10;;;;;;;;;;6259011;28;20118;-67
2022/01/14 12:32:22;;;;;;;18.95;13.30;;;;;;;;;;6253272;28;20140;-67
2022/01/14 12:35:34;;;;;;;22.10;14.65;;;;;;;;;;6257241;28;20176;-67
2022/01/14 12:38:36;;;;;;;22.33;14.07;;;;;;;;;;6261298;28;20139;-67
2022/01/14 12:41:38;;;;;;;24.50;14.93;;;;;;;;;;6256371;28;20140;-65
2022/01/14 12:44:40;;;;;;;21.15;14.60;;;;;;;;;;6259260;28;20065;-66
2022/01/14 12:47:42;;;;;;;22.05;15.20;;;;;;;;;;6256242;28;20041;-67
2022/01/14 12:50:46;;;;;;;23.92;16.90;;;;;;;;;;6259860;28;20160;-68
2022/01/14 12:53:50;;;;;;;22.80;16.55;;;;;;;;;;6256078;28;20047;-68
2022/01/14 12:56:53;;;;;;;24.95;15.85;;;;;;;;;;6259597;28;20046;-67
2022/01/14 12:59:55;;;;;;;21.85;14.63;;;;;;;;;;6258644;28;20486;-69
2022/01/14 13:02:56;;;;;;;20.67;15.13;;;;;;;;;;6257238;28;20152;-66
2022/01/14 13:06:01;;;;;;;24.60;15.70;;;;;;;;;;6255992;28;20060;-67
2022/01/14 13:09:03;;;;;;;25.48;15.60;;;;;;;;;;6257437;28;20144;-66
2022/01/14 13:12:06;;;;;;;24.48;16.02;;;;;;;;;;6255740;28;20050;-67
2022/01/14 13:15:10;;;;;;;20.20;14.68;;;;;;;;;;6255443;28;20060;-68
2022/01/14 13:18:20;;;;;;;;;;;;;;;;;;6282072;28;20045;-68
2022/01/14 13:21:23;;;;;;;20.30;14.90;;;;;;;;;;6281077;28;19926;-68
2022/01/14 13:24:27;;;;;;;22.00;14.43;;;;;;;;;;6277314;28;20096;-68
2022/01/14 13:27:30;;;;;;;24.80;15.77;;;;;;;;;;6276034;28;20672;-67
2022/01/14 13:30:35;;;;;;;22.48;13.95;;;;;;;;;;6262821;28;20567;-68
2022/01/14 13:33:37;;;;;;;20.48;13.82;;;;;;;;;;6264200;28;20516;-68
2022/01/14 13:36:41;;;;;;;20.33;13.50;;;;;;;;;;6265859;28;20041;-68
2022/01/14 13:39:42;;;;;;;20.33;14.13;;;;;;;;;;6242667;28;20045;-69
2022/01/14 13:42:46;;;;;;;22.27;13.57;;;;;;;;;;6235900;28;20057;-64
2022/01/14 13:45:49;;;;;;;19.73;12.65;;;;;;;;;;6237151;28;20115;-68
2022/01/14 13:48:52;;;;;;;18.33;12.80;;;;;;;;;;6256325;28;20137;-68
2022/01/14 13:52:08;;;;;;;17.57;12.77;;;;;;;;;;6235340;28;20080;-68
2022/01/14 13:55:10;;;;;;;18.45;13.13;;;;;;;;;;6234495;28;20048;-68
2022/01/14 13:58:15;;;;;;;23.63;12.75;;;;;;;;;;6241997;28;20096;-69
2022/01/14 14:01:17;;;;;;;19.75;13.45;;;;;;;;;;6237429;28;20042;-68
2022/01/14 14:04:27;;;;;;;18.98;13.57;;;;;;;;;;6238086;28;20038;-67
2022/01/14 14:07:45;;;;;;;18.45;12.93;;;;;;;;;;6236389;28;20402;-69
2022/01/14 14:17:42;;;;;;;22.70;14.55;;;;;;;;;;6242537;28;20507;-69
2022/01/14 14:20:44;;;;;;;24.40;14.32;;;;;;;;;;6240567;28;20127;-68
2022/01/14 14:23:54;;;;;;;21.73;14.13;;;;;;;;;;6235352;28;20079;-68
2022/01/14 14:27:09;;;;;;;23.48;15.13;;;;;;;;;;6230570;28;20073;-68
2022/01/14 14:30:13;;;;;;;21.83;14.25;;;;;;;;;;6234356;28;20093;-68
2022/01/14 14:33:16;;;;;;;21.30;14.30;;;;;;;;;;6232095;28;20120;-68
2022/01/14 14:36:19;;;;;;;19.83;14.27;;;;;;;;;;6231260;28;20050;-68
2022/01/14 14:39:26;;;;;;;22.23;14.10;;;;;;;;;;6230987;28;20060;-68
2022/01/14 14:42:27;;;;;;;19.65;13.70;;;;;;;;;;6233977;28;21110;-68
2022/01/14 14:45:30;;;;;;;22.33;14.70;;;;;;;;;;6229876;28;20387;-68
2022/01/14 14:48:31;;;;;;;19.73;14.20;;;;;;;;;;6235394;28;20124;-68
2022/01/14 14:51:33;;;;;;;20.40;13.70;;;;;;;;;;6234143;28;20478;-68
2022/01/14 14:54:37;;;;;;;21.77;15.25;;;;;;;;;;6230110;28;20718;-69
2022/01/14 14:57:38;;;;;;;23.38;15.48;;;;;;;;;;6233767;28;20088;-68
2022/01/14 15:00:40;;;;;;;25.58;15.50;;;;;;;;;;6231079;28;20129;-69
2022/01/14 15:03:43;;;;;;;21.23;15.15;;;;;;;;;;6244616;28;20184;-68
2022/01/14 15:06:45;;;;;;;23.15;15.00;;;;;;;;;;6256700;28;20049;-68
2022/01/14 15:09:53;;;;;;;21.08;14.95;;;;;;;;;;6247187;28;20142;-65
2022/01/14 15:12:55;;;;;;;21.98;14.75;;;;;;;;;;6255734;28;20057;-68
2022/01/14 15:16:25;;;;;;;23.15;15.45;;;;;;;;;;6255731;28;20055;-68
2022/01/14 15:19:26;;;;;;;19.83;14.40;;;;;;;;;;6252037;28;20046;-69
2022/01/14 15:22:28;;;;;;;20.70;14.07;;;;;;;;;;6256372;28;20088;-68
2022/01/14 15:25:31;;;;;;;21.13;14.02;;;;;;;;;;6251944;28;20530;-70
2022/01/14 15:28:33;;;;;;;21.00;14.10;;;;;;;;;;6256963;28;20141;-69
2022/01/14 15:31:34;;;;;;;20.95;14.05;;;;;;;;;;6252183;28;20124;-69
2022/01/14 15:34:37;;;;;;;23.25;15.13;;;;;;;;;;6252999;28;20497;-70
2022/01/14 15:37:38;;;;;;;19.17;13.88;;;;;;;;;;6254140;28;20052;-70
2022/01/14 15:40:42;;;;;;;21.00;14.40;;;;;;;;;;6253668;28;20108;-68
2022/01/14 15:43:43;;;;;;;21.52;15.30;;;;;;;;;;6256952;28;20042;-67
2022/01/14 15:46:47;;;;;;;21.08;15.00;;;;;;;;;;6257359;28;20045;-68
2022/01/14 15:49:51;;;;;;;;;;;;;;;;;;6256588;28;20059;-67
2022/01/14 15:52:53;;;;;;;23.92;14.35;;;;;;;;;;6256206;28;20381;-66
2022/01/14 15:55:57;;;;;;;23.67;15.38;;;;;;;;;;6261718;28;20065;-66
2022/01/14 15:58:59;;;;;;;23.33;14.25;;;;;;;;;;6254256;28;20056;-66
2022/01/14 16:02:01;;;;;;;25.65;14.93;;;;;;;;;;6257712;28;20568;-67
2022/01/14 16:05:03;;;;;;;20.60;14.73;;;;;;;;;;6255331;28;20045;-66
2022/01/14 16:08:05;;;;;;;24.90;15.80;;;;;;;;;;6258858;28;20072;-66
2022/01/14 16:11:09;;;;;;;22.58;15.13;;;;;;;;;;6251464;28;20512;-66
2022/01/14 16:14:20;;;;;;;21.75;14.65;;;;;;;;;;6258691;28;20095;-67
2022/01/14 16:17:22;;;;;;;22.52;14.55;;;;;;;;;;6249771;28;20045;-66
2022/01/14 16:20:24;;;;;;;26.02;15.95;;;;;;;;;;6254382;28;20120;-67
2022/01/14 16:23:26;;;;;;;22.00;14.35;;;;;;;;;;6249958;28;20101;-67
2022/01/14 16:26:28;;;;;;;25.20;15.43;;;;;;;;;;6254712;28;20191;-67
2022/01/14 16:29:45;;;;;;;23.02;14.75;;;;;;;;;;6255814;28;20091;-67
2022/01/14 16:32:48;;;;;;;25.63;15.65;;;;;;;;;;6250517;28;20138;-67
2022/01/14 16:35:50;;;;;;;23.85;14.63;;;;;;;;;;6259088;28;20099;-66
2022/01/14 16:38:51;;;;;;;23.40;14.93;;;;;;;;;;6249874;28;20131;-65
2022/01/14 16:41:54;;;;;;;26.33;15.13;;;;;;;;;;6253696;28;20127;-65
2022/01/14 16:44:57;;;;;;;25.23;15.50;;;;;;;;;;6253618;28;20048;-66
2022/01/14 16:47:59;;;;;;;26.83;14.50;;;;;;;;;;6251237;28;20126;-66
2022/01/14 16:51:01;;;;;;;24.17;15.05;;;;;;;;;;6251639;28;20045;-66
2022/01/14 16:54:02;;;;;;;29.75;14.63;;;;;;;;;;6252014;28;20136;-66
2022/01/14 16:57:06;;;;;;;24.38;14.50;;;;;;;;;;6254050;28;20119;-67
2022/01/14 17:00:10;;;;;;;23.70;14.48;;;;;;;;;;6251536;28;20250;-66
2022/01/14 17:03:12;;;;;;;29.23;14.93;;;;;;;;;;6249972;28;20046;-66
2022/01/14 17:06:13;;;;;;;29.77;16.58;;;;;;;;;;6248791;28;20110;-66
2022/01/14 17:09:15;;;;;;;25.77;15.02;;;;;;;;;;6255709;28;20072;-66
2022/01/14 17:12:18;;;;;;;25.42;15.32;;;;;;;;;;6256975;28;20135;-66
2022/01/14 17:15:20;;;;;;;26.77;14.95;;;;;;;;;;6257917;28;20259;-66
2022/01/14 17:18:21;;;;;;;24.33;15.77;;;;;;;;;;6253786;28;20207;-66
2022/01/14 17:21:23;;;;;;;27.40;15.00;;;;;;;;;;6253490;28;20088;-67
2022/01/14 17:24:25;;;;;;;24.98;14.95;;;;;;;;;;6255808;28;20122;-67
2022/01/14 17:27:28;;;;;;;26.50;16.05;;;;;;;;;;6251884;28;20052;-67
2022/01/14 17:30:29;;;;;;;28.10;15.30;;;;;;;;;;6252505;28;20064;-67
2022/01/14 17:33:31;;;;;;;26.10;15.07;;;;;;;;;;6254698;28;20124;-67
2022/01/14 17:36:33;;;;;;;24.73;15.10;;;;;;;;;;6257813;28;20119;-66
2022/01/14 17:39:35;;;;;;;25.92;15.18;;;;;;;;;;6255863;28;20037;-66
2022/01/14 17:42:37;;;;;;;28.35;15.75;;;;;;;;;;6259487;28;20135;-66
2022/01/14 17:45:40;;;;;;;27.83;16.75;;;;;;;;;;6259698;28;20085;-67
2022/01/14 17:48:42;;;;;;;25.90;15.10;;;;;;;;;;6253019;28;20553;-64
2022/01/14 17:51:45;;;;;;;28.10;16.52;;;;;;;;;;6254623;28;20401;-66
2022/01/14 17:54:46;;;;;;;27.38;17.15;;;;;;;;;;6255619;28;20056;-66
2022/01/14 17:57:49;;;;;;;30.23;16.00;;;;;;;;;;6261239;28;20073;-66
2022/01/14 18:00:51;;;;;;;29.05;16.25;;;;;;;;;;6251878;28;20096;-66
2022/01/14 18:03:53;;;;;;;27.20;16.92;;;;;;;;;;6262095;28;20055;-66
2022/01/14 18:06:54;;;;;;;28.83;16.67;;;;;;;;;;6261671;28;20060;-66
2022/01/14 18:09:56;;;;;;;31.48;16.00;;;;;;;;;;6256972;28;20119;-66
2022/01/14 18:13:01;;;;;;;28.67;17.42;;;;;;;;;;6255925;28;20076;-68
2022/01/14 18:16:03;;;;;;;128.02;60.45;;;;;;;;;;6255915;28;20046;-66